createdAt,value
2018-12-05T00:00:05.188Z,21.9
2018-12-05T00:02:04.649Z,21.9
2018-12-05T00:04:04.911Z,21.9
2018-12-05T00:06:07.262Z,21.9
2018-12-05T00:08:07.494Z,21.9
2018-12-05T00:10:05.212Z,21.9
2018-12-05T00:12:08.034Z,21.9
2018-12-05T00:14:04.737Z,21.9
2018-12-05T00:16:05.537Z,21.9
2018-12-05T00:18:05.446Z,21.9
2018-12-05T00:20:05.210Z,21.9
2018-12-05T00:22:04.951Z,21.9
2018-12-05T00:24:07.122Z,21.9
2018-12-05T00:26:04.828Z,21.8
2018-12-05T00:28:05.494Z,21.9
2018-12-05T00:30:10.238Z,21.9
2018-12-05T00:32:05.511Z,21.9
2018-12-05T00:34:05.203Z,21.9
2018-12-05T00:36:04.908Z,21.9
2018-12-05T00:38:05.565Z,21.9
2018-12-05T00:40:05.314Z,21.9
2018-12-05T00:42:05.526Z,21.9
2018-12-05T00:44:07.852Z,21.9
2018-12-05T00:46:05.166Z,21.9
2018-12-05T00:48:09.929Z,21.9
2018-12-05T00:50:05.689Z,21.9
2018-12-05T00:52:05.418Z,21.9
2018-12-05T00:54:05.661Z,21.9
2018-12-05T00:56:05.367Z,21.9
2018-12-05T00:58:07.546Z,21.9
2018-12-05T01:00:05.251Z,21.9
2018-12-05T01:02:07.669Z,21.9
2018-12-05T01:04:05.528Z,21.9
2018-12-05T01:06:10.349Z,21.9
2018-12-05T01:08:07.578Z,21.9
2018-12-05T01:10:05.248Z,21.9
2018-12-05T01:12:04.918Z,21.8
2018-12-05T01:14:05.710Z,21.9
2018-12-05T01:16:10.429Z,21.9
2018-12-05T01:18:05.298Z,21.9
2018-12-05T01:20:05.000Z,21.9
2018-12-05T01:22:05.176Z,21.9
2018-12-05T01:24:07.410Z,21.9
2018-12-05T01:26:10.126Z,21.9
2018-12-05T01:28:05.417Z,21.9
2018-12-05T01:30:05.182Z,21.8
2018-12-05T01:32:04.947Z,21.9
2018-12-05T01:34:04.729Z,21.9
2018-12-05T01:36:05.433Z,21.9
2018-12-05T01:38:05.118Z,21.9
2018-12-05T01:40:04.839Z,21.9
2018-12-05T01:42:05.092Z,21.9
2018-12-05T01:44:04.815Z,21.9
2018-12-05T01:46:10.527Z,21.8
2018-12-05T01:48:05.238Z,21.8
2018-12-05T01:50:05.014Z,21.8
2018-12-05T01:52:05.232Z,21.8
2018-12-05T01:54:04.990Z,21.8
2018-12-05T01:56:05.255Z,21.8
2018-12-05T01:58:05.988Z,21.8
2018-12-05T02:00:04.703Z,21.8
2018-12-05T02:02:05.575Z,21.8
2018-12-05T02:04:05.336Z,21.9
2018-12-05T02:06:05.007Z,21.9
2018-12-05T02:08:05.026Z,21.8
2018-12-05T02:10:04.903Z,21.8
2018-12-05T02:12:05.600Z,21.8
2018-12-05T02:14:05.505Z,21.8
2018-12-05T02:16:09.823Z,21.8
2018-12-05T02:18:04.687Z,21.8
2018-12-05T02:20:05.357Z,21.8
2018-12-05T02:22:05.054Z,21.8
2018-12-05T02:24:05.343Z,21.8
2018-12-05T02:26:05.077Z,21.8
2018-12-05T02:28:04.807Z,21.8
2018-12-05T02:30:07.617Z,21.8
2018-12-05T02:32:07.866Z,21.8
2018-12-05T02:34:04.902Z,21.8
2018-12-05T02:36:05.616Z,21.8
2018-12-05T02:38:04.988Z,21.8
2018-12-05T02:40:07.633Z,21.8
2018-12-05T02:42:05.316Z,21.8
2018-12-05T02:44:05.061Z,21.8
2018-12-05T02:46:05.266Z,21.8
2018-12-05T02:48:04.951Z,21.8
2018-12-05T02:50:04.685Z,21.8
2018-12-05T02:52:04.908Z,21.8
2018-12-05T02:54:05.162Z,21.8
2018-12-05T02:56:04.954Z,21.8
2018-12-05T02:58:04.639Z,21.8
2018-12-05T03:00:07.455Z,21.8
2018-12-05T03:02:04.914Z,21.8
2018-12-05T03:04:09.749Z,21.8
2018-12-05T03:06:05.562Z,21.8
2018-12-05T03:08:08.150Z,21.8
2018-12-05T03:10:04.893Z,21.8
2018-12-05T03:12:04.624Z,21.8
2018-12-05T03:14:07.877Z,21.8
2018-12-05T03:16:08.109Z,21.8
2018-12-05T03:18:05.149Z,21.8
2018-12-05T03:20:07.402Z,21.8
2018-12-05T03:22:05.104Z,21.7
2018-12-05T03:24:05.399Z,21.8
2018-12-05T03:26:05.050Z,21.8
2018-12-05T03:28:04.694Z,21.8
2018-12-05T03:30:12.481Z,21.8
2018-12-05T03:32:05.535Z,21.7
2018-12-05T03:34:05.079Z,21.8
2018-12-05T03:36:07.435Z,21.7
2018-12-05T03:38:05.105Z,21.8
2018-12-05T03:40:04.890Z,21.8
2018-12-05T03:42:04.623Z,21.8
2018-12-05T03:44:05.441Z,21.7
2018-12-05T03:46:05.171Z,21.7
2018-12-05T03:48:07.494Z,21.7
2018-12-05T03:50:05.538Z,21.7
2018-12-05T03:52:07.189Z,21.8
2018-12-05T03:54:04.926Z,21.7
2018-12-05T03:56:07.248Z,21.7
2018-12-05T03:58:04.905Z,21.7
2018-12-05T04:00:08.109Z,21.7
2018-12-05T04:02:05.145Z,21.7
2018-12-05T04:04:04.909Z,21.7
2018-12-05T04:06:05.584Z,21.7
2018-12-05T04:08:05.307Z,21.7
2018-12-05T04:10:05.029Z,21.7
2018-12-05T04:12:04.811Z,21.7
2018-12-05T04:14:08.162Z,21.7
2018-12-05T04:16:09.936Z,21.7
2018-12-05T04:18:05.553Z,21.7
2018-12-05T04:20:05.357Z,21.7
2018-12-05T04:22:07.572Z,21.7
2018-12-05T04:24:05.208Z,21.7
2018-12-05T04:26:04.905Z,21.7
2018-12-05T04:28:05.662Z,21.7
2018-12-05T04:30:07.925Z,21.7
2018-12-05T04:32:04.634Z,21.7
2018-12-05T04:34:05.331Z,21.8
2018-12-05T04:36:05.028Z,21.8
2018-12-05T04:38:04.689Z,21.7
2018-12-05T04:40:05.352Z,21.7
2018-12-05T04:42:05.604Z,21.7
2018-12-05T04:44:05.511Z,21.7
2018-12-05T04:46:09.769Z,21.7
2018-12-05T04:48:05.463Z,21.7
2018-12-05T04:50:04.926Z,21.7
2018-12-05T04:52:12.417Z,21.6
2018-12-05T04:54:05.116Z,21.7
2018-12-05T04:56:11.422Z,21.7
2018-12-05T04:58:10.157Z,21.6
2018-12-05T05:00:04.846Z,21.7
2018-12-05T05:02:04.812Z,21.6
2018-12-05T05:04:05.455Z,21.6
2018-12-05T05:06:04.698Z,21.7
2018-12-05T05:08:05.626Z,21.6
2018-12-05T05:10:05.361Z,21.6
2018-12-05T05:12:05.607Z,21.6
2018-12-05T05:14:05.321Z,21.6
2018-12-05T05:16:04.989Z,21.6
2018-12-05T05:18:04.867Z,21.6
2018-12-05T05:20:04.629Z,21.6
2018-12-05T05:22:07.856Z,21.7
2018-12-05T05:24:05.604Z,21.6
2018-12-05T05:26:05.250Z,21.6
2018-12-05T05:28:04.897Z,21.6
2018-12-05T05:30:10.777Z,21.6
2018-12-05T05:32:07.452Z,21.7
2018-12-05T05:34:05.119Z,21.6
2018-12-05T05:36:04.816Z,21.7
2018-12-05T05:38:10.517Z,21.6
2018-12-05T05:40:05.176Z,21.7
2018-12-05T05:42:04.976Z,21.7
2018-12-05T05:44:10.521Z,21.6
2018-12-05T05:46:05.398Z,21.6
2018-12-05T05:48:07.597Z,21.6
2018-12-05T05:50:05.286Z,21.6
2018-12-05T05:52:05.007Z,21.6
2018-12-05T05:54:05.365Z,21.6
2018-12-05T05:56:05.103Z,21.6
2018-12-05T05:58:05.279Z,21.6
2018-12-05T06:00:07.517Z,21.6
2018-12-05T06:02:05.417Z,21.6
2018-12-05T06:04:07.189Z,21.6
2018-12-05T06:06:08.132Z,21.7
2018-12-05T06:08:04.863Z,21.6
2018-12-05T06:10:05.049Z,21.6
2018-12-05T06:12:04.781Z,21.6
2018-12-05T06:14:04.988Z,21.6
2018-12-05T06:16:04.710Z,21.6
2018-12-05T06:18:04.809Z,21.6
2018-12-05T06:20:06.521Z,21.6
2018-12-05T06:22:05.254Z,21.6
2018-12-05T06:24:04.982Z,21.6
2018-12-05T06:26:04.687Z,21.6
2018-12-05T06:28:09.981Z,21.6
2018-12-05T06:30:04.721Z,21.6
2018-12-05T06:32:04.635Z,21.6
2018-12-05T06:34:05.566Z,21.6
2018-12-05T06:36:05.492Z,21.6
2018-12-05T06:38:04.711Z,21.6
2018-12-05T06:40:05.377Z,21.6
2018-12-05T06:42:07.620Z,21.6
2018-12-05T06:44:05.304Z,21.6
2018-12-05T06:46:10.043Z,21.6
2018-12-05T06:48:04.719Z,21.6
2018-12-05T06:50:05.543Z,21.6
2018-12-05T06:52:12.820Z,21.6
2018-12-05T06:54:08.028Z,21.6
2018-12-05T06:56:04.901Z,21.6
2018-12-05T06:58:08.147Z,21.6
2018-12-05T07:00:05.419Z,21.6
2018-12-05T07:02:08.133Z,21.5
2018-12-05T07:04:04.797Z,21.5
2018-12-05T07:06:05.537Z,21.6
2018-12-05T07:08:05.209Z,21.5
2018-12-05T07:10:07.945Z,21.5
2018-12-05T07:12:05.233Z,21.5
2018-12-05T07:14:04.962Z,21.5
2018-12-05T07:16:07.199Z,21.5
2018-12-05T07:18:05.047Z,21.5
2018-12-05T07:20:04.709Z,21.5
2018-12-05T07:22:05.364Z,21.5
2018-12-05T07:24:08.990Z,21.5
2018-12-05T07:26:10.010Z,21.5
2018-12-05T07:28:04.680Z,21.5
2018-12-05T07:30:04.877Z,21.5
2018-12-05T07:32:05.628Z,21.5
2018-12-05T07:34:05.381Z,21.5
2018-12-05T07:36:10.113Z,21.5
2018-12-05T07:38:04.805Z,21.5
2018-12-05T07:40:05.455Z,21.5
2018-12-05T07:42:05.322Z,21.5
2018-12-05T07:44:05.205Z,21.5
2018-12-05T07:46:04.872Z,21.5
2018-12-05T07:48:05.118Z,21.5
2018-12-05T07:50:04.823Z,21.5
2018-12-05T07:52:05.645Z,21.5
2018-12-05T07:54:07.893Z,21.5
2018-12-05T07:56:09.857Z,21.5
2018-12-05T07:58:05.568Z,21.5
2018-12-05T08:00:05.266Z,21.5
2018-12-05T08:02:05.216Z,21.5
2018-12-05T08:04:05.329Z,21.5
2018-12-05T08:06:07.611Z,21.5
2018-12-05T08:08:05.352Z,21.5
2018-12-05T08:10:05.028Z,21.5
2018-12-05T08:12:04.705Z,21.5
2018-12-05T08:14:13.029Z,21.5
2018-12-05T08:16:05.317Z,21.5
2018-12-05T08:18:05.215Z,21.5
2018-12-05T08:20:08.019Z,21.5
2018-12-05T08:22:07.202Z,21.5
2018-12-05T08:24:07.407Z,21.5
2018-12-05T08:26:05.239Z,21.5
2018-12-05T08:28:04.976Z,21.5
2018-12-05T08:30:04.722Z,21.5
2018-12-05T08:32:05.586Z,21.5
2018-12-05T08:34:04.914Z,21.5
2018-12-05T08:36:04.627Z,21.5
2018-12-05T08:38:05.309Z,21.5
2018-12-05T08:40:05.201Z,21.5
2018-12-05T08:42:04.982Z,21.5
2018-12-05T08:44:07.239Z,21.6
2018-12-05T08:46:05.096Z,21.5
2018-12-05T08:48:07.853Z,21.5
2018-12-05T08:50:05.614Z,21.5
2018-12-05T08:52:05.312Z,21.5
2018-12-05T08:54:04.987Z,21.5
2018-12-05T08:56:04.655Z,21.5
2018-12-05T08:58:04.893Z,21.5
2018-12-05T09:00:05.700Z,21.6
2018-12-05T09:02:05.434Z,21.5
2018-12-05T09:04:04.685Z,21.6
2018-12-05T09:06:05.363Z,21.5
2018-12-05T09:08:05.063Z,21.5
2018-12-05T09:10:04.719Z,21.5
2018-12-05T09:12:05.432Z,21.6
2018-12-05T09:14:05.168Z,21.5
2018-12-05T09:16:04.918Z,21.5
2018-12-05T09:18:04.862Z,21.5
2018-12-05T09:20:05.551Z,21.6
2018-12-05T09:22:10.296Z,21.6
2018-12-05T09:24:07.624Z,21.6
2018-12-05T09:26:05.303Z,21.5
2018-12-05T09:28:05.528Z,21.6
2018-12-05T09:30:07.772Z,21.6
2018-12-05T09:32:05.480Z,21.6
2018-12-05T09:34:05.138Z,21.5
2018-12-05T09:36:04.819Z,21.6
2018-12-05T09:38:05.125Z,21.6
2018-12-05T09:40:04.826Z,21.5
2018-12-05T09:42:05.528Z,21.6
2018-12-05T09:44:05.290Z,21.6
2018-12-05T09:46:05.007Z,21.5
2018-12-05T09:48:04.674Z,21.6
2018-12-05T09:50:05.328Z,21.5
2018-12-05T09:52:05.006Z,21.5
2018-12-05T09:54:04.667Z,21.5
2018-12-05T09:56:04.904Z,21.6
2018-12-05T09:58:10.182Z,21.6
2018-12-05T10:00:04.857Z,21.5
2018-12-05T10:02:05.560Z,21.5
2018-12-05T10:04:05.271Z,21.5
2018-12-05T10:06:04.994Z,21.5
2018-12-05T10:08:04.708Z,21.5
2018-12-05T10:10:05.480Z,21.5
2018-12-05T10:12:05.228Z,21.6
2018-12-05T10:14:05.084Z,21.5
2018-12-05T10:16:04.846Z,21.5
2018-12-05T10:18:04.706Z,21.5
2018-12-05T10:20:05.520Z,21.5
2018-12-05T10:22:04.775Z,21.5
2018-12-05T10:24:05.469Z,21.5
2018-12-05T10:26:04.731Z,21.5
2018-12-05T10:28:04.949Z,21.5
2018-12-05T10:30:04.698Z,21.5
2018-12-05T10:32:07.925Z,21.5
2018-12-05T10:34:04.655Z,21.5
2018-12-05T10:36:04.900Z,21.5
2018-12-05T10:38:05.104Z,21.6
2018-12-05T10:40:04.765Z,21.5
2018-12-05T10:42:05.452Z,21.5
2018-12-05T10:44:05.107Z,21.5
2018-12-05T10:46:07.309Z,21.5
2018-12-05T10:48:05.549Z,21.5
2018-12-05T10:50:05.229Z,21.5
2018-12-05T10:52:09.967Z,21.6
2018-12-05T10:54:04.686Z,21.6
2018-12-05T10:56:12.974Z,21.6
2018-12-05T10:58:04.703Z,21.6
2018-12-05T11:00:05.361Z,21.6
2018-12-05T11:02:05.120Z,21.6
2018-12-05T11:04:05.363Z,21.6
2018-12-05T11:06:05.212Z,21.6
2018-12-05T11:08:04.874Z,21.6
2018-12-05T11:10:05.070Z,21.6
2018-12-05T11:12:04.907Z,21.6
2018-12-05T11:14:04.758Z,21.6
2018-12-05T11:16:07.994Z,21.6
2018-12-05T11:18:09.923Z,21.6
2018-12-05T11:20:05.631Z,21.6
2018-12-05T11:22:10.424Z,21.6
2018-12-05T11:24:05.189Z,21.6
2018-12-05T11:26:04.880Z,21.6
2018-12-05T11:28:05.596Z,21.6
2018-12-05T11:30:05.306Z,21.6
2018-12-05T11:32:05.011Z,21.6
2018-12-05T11:34:04.766Z,21.6
2018-12-05T11:36:04.957Z,21.6
2018-12-05T11:38:07.183Z,21.6
2018-12-05T11:40:04.895Z,21.6
2018-12-05T11:42:05.159Z,21.6
2018-12-05T11:44:07.994Z,21.6
2018-12-05T11:46:04.682Z,21.6
2018-12-05T11:48:05.364Z,21.5
2018-12-05T11:50:05.090Z,21.6
2018-12-05T11:52:07.281Z,21.5
2018-12-05T11:54:05.493Z,21.5
2018-12-05T11:56:05.158Z,21.6
2018-12-05T11:58:07.423Z,21.5
2018-12-05T12:00:05.146Z,21.5
2018-12-05T12:02:04.962Z,21.6
2018-12-05T12:04:04.632Z,21.6
2018-12-05T12:06:05.339Z,21.6
2018-12-05T12:08:05.051Z,21.5
2018-12-05T12:10:04.877Z,21.5
2018-12-05T12:12:05.633Z,21.6
2018-12-05T12:14:05.374Z,21.5
2018-12-05T12:16:05.095Z,21.5
2018-12-05T12:18:05.560Z,21.5
2018-12-05T12:20:05.246Z,21.5
2018-12-05T12:22:05.620Z,21.5
2018-12-05T12:24:07.890Z,21.5
2018-12-05T12:26:05.428Z,21.5
2018-12-05T12:28:05.296Z,21.5
2018-12-05T12:30:05.536Z,21.5
2018-12-05T12:32:10.396Z,21.5
2018-12-05T12:34:05.133Z,21.5
2018-12-05T12:36:04.825Z,21.5
2018-12-05T12:38:05.498Z,21.5
2018-12-05T12:40:05.158Z,21.5
2018-12-05T12:42:04.830Z,21.5
2018-12-05T12:44:05.047Z,21.5
2018-12-05T12:46:04.743Z,21.5
2018-12-05T12:48:05.016Z,21.5
2018-12-05T12:50:12.918Z,21.5
2018-12-05T12:52:04.698Z,21.5
2018-12-05T12:54:10.413Z,21.5
2018-12-05T12:56:05.087Z,21.5
2018-12-05T12:58:04.746Z,21.5
2018-12-05T13:00:08.019Z,21.5
2018-12-05T13:02:05.335Z,21.5
2018-12-05T13:04:07.275Z,21.5
2018-12-05T13:06:05.040Z,21.5
2018-12-05T13:08:09.794Z,21.6
2018-12-05T13:10:05.476Z,21.5
2018-12-05T13:12:05.242Z,21.6
2018-12-05T13:14:04.970Z,21.6
2018-12-05T13:16:04.666Z,21.6
2018-12-05T13:18:04.635Z,21.5
2018-12-05T13:20:05.368Z,21.6
2018-12-05T13:22:04.647Z,21.6
2018-12-05T13:24:05.343Z,21.6
2018-12-05T13:26:07.570Z,21.6
2018-12-05T13:28:10.344Z,21.5
2018-12-05T13:30:08.068Z,21.6
2018-12-05T13:32:04.817Z,21.6
2018-12-05T13:34:13.139Z,21.6
2018-12-05T13:36:04.827Z,21.6
2018-12-05T13:38:07.218Z,21.6
2018-12-05T13:40:10.012Z,21.6
2018-12-05T13:42:05.340Z,21.6
2018-12-05T13:44:10.203Z,21.7
2018-12-05T13:46:10.567Z,21.7
2018-12-05T13:48:05.344Z,21.7
2018-12-05T13:50:05.252Z,21.7
2018-12-05T13:52:04.971Z,21.7
2018-12-05T13:54:04.865Z,21.7
2018-12-05T13:56:05.044Z,21.7
2018-12-05T13:58:04.756Z,21.7
2018-12-05T14:00:05.042Z,21.8
2018-12-05T14:02:04.740Z,21.7
2018-12-05T14:04:05.003Z,21.7
2018-12-05T14:06:07.268Z,21.6
2018-12-05T14:08:04.978Z,21.6
2018-12-05T14:10:05.209Z,21.6
2018-12-05T14:12:04.978Z,21.6
2018-12-05T14:14:04.678Z,21.6
2018-12-05T14:16:05.093Z,21.7
2018-12-05T14:18:07.524Z,21.7
2018-12-05T14:20:04.740Z,21.7
2018-12-05T14:22:05.038Z,21.7
2018-12-05T14:24:07.856Z,21.7
2018-12-05T14:26:05.564Z,21.7
2018-12-05T14:28:05.335Z,21.7
2018-12-05T14:30:05.595Z,21.7
2018-12-05T14:32:05.263Z,21.7
2018-12-05T14:34:07.520Z,21.7
2018-12-05T14:36:04.763Z,21.7
2018-12-05T14:38:10.479Z,21.7
2018-12-05T14:40:05.204Z,21.7
2018-12-05T14:42:04.869Z,21.8
2018-12-05T14:44:05.546Z,21.8
2018-12-05T14:46:12.813Z,21.9
2018-12-05T14:48:08.069Z,21.8
2018-12-05T14:50:04.804Z,21.7
2018-12-05T14:52:05.494Z,21.9
2018-12-05T14:54:07.774Z,21.8
2018-12-05T14:56:05.497Z,21.9
2018-12-05T14:58:07.878Z,21.8
2018-12-05T15:00:05.607Z,21.8
2018-12-05T15:02:04.894Z,21.8
2018-12-05T15:04:08.111Z,21.8
2018-12-05T15:06:07.879Z,21.9
2018-12-05T15:08:05.545Z,21.9
2018-12-05T15:10:07.532Z,22
2018-12-05T15:12:05.219Z,22
2018-12-05T15:14:04.937Z,22
2018-12-05T15:16:04.715Z,21.9
2018-12-05T15:18:05.684Z,22
2018-12-05T15:20:07.884Z,22
2018-12-05T15:22:05.283Z,22
2018-12-05T15:24:04.649Z,21.9
2018-12-05T15:26:05.346Z,21.9
2018-12-05T15:28:05.644Z,22
2018-12-05T15:30:05.346Z,22
2018-12-05T15:32:05.053Z,22
2018-12-05T15:34:04.829Z,21.9
2018-12-05T15:36:05.508Z,21.9
2018-12-05T15:38:05.667Z,21.9
2018-12-05T15:40:07.930Z,21.9
2018-12-05T15:42:07.669Z,21.9
2018-12-05T15:44:05.404Z,21.8
2018-12-05T15:46:05.136Z,21.9
2018-12-05T15:48:04.990Z,21.8
2018-12-05T15:50:04.903Z,21.9
2018-12-05T15:52:05.569Z,21.8
2018-12-05T15:54:05.288Z,21.8
2018-12-05T15:56:05.190Z,21.9
2018-12-05T15:58:07.419Z,21.8
2018-12-05T16:00:07.642Z,21.8
2018-12-05T16:02:05.329Z,21.8
2018-12-05T16:04:05.002Z,21.8
2018-12-05T16:06:04.953Z,21.8
2018-12-05T16:08:04.730Z,21.9
2018-12-05T16:10:05.421Z,21.8
2018-12-05T16:12:05.118Z,21.9
2018-12-05T16:14:09.859Z,21.9
2018-12-05T16:16:05.119Z,21.8
2018-12-05T16:18:05.381Z,21.9
2018-12-05T16:20:07.604Z,21.9
2018-12-05T16:22:04.923Z,21.9
2018-12-05T16:24:04.942Z,21.9
2018-12-05T16:26:10.537Z,21.9
2018-12-05T16:28:05.478Z,21.9
2018-12-05T16:30:07.752Z,21.9
2018-12-05T16:32:05.487Z,21.9
2018-12-05T16:34:05.159Z,21.9
2018-12-05T16:36:11.168Z,22
2018-12-05T16:38:05.120Z,22
2018-12-05T16:40:04.778Z,22
2018-12-05T16:42:04.679Z,21.9
2018-12-05T16:44:12.498Z,22
2018-12-05T16:46:05.044Z,22
2018-12-05T16:48:07.259Z,21.9
2018-12-05T16:50:04.957Z,21.9
2018-12-05T16:52:04.665Z,22
2018-12-05T16:54:05.338Z,21.9
2018-12-05T16:56:05.003Z,21.9
2018-12-05T16:58:04.684Z,21.9
2018-12-05T17:00:10.443Z,22
2018-12-05T17:02:10.263Z,21.9
2018-12-05T17:04:04.985Z,22
2018-12-05T17:06:04.916Z,21.9
2018-12-05T17:08:04.812Z,21.8
2018-12-05T17:10:05.443Z,21.9
2018-12-05T17:12:05.116Z,21.9
2018-12-05T17:14:04.782Z,21.9
2018-12-05T17:16:05.411Z,21.9
2018-12-05T17:18:05.343Z,21.9
2018-12-05T17:20:04.997Z,21.9
2018-12-05T17:22:04.705Z,22
2018-12-05T17:24:05.454Z,22
2018-12-05T17:26:05.146Z,22
2018-12-05T17:28:04.899Z,22
2018-12-05T17:30:07.923Z,22.1
2018-12-05T17:32:05.641Z,22
2018-12-05T17:34:05.418Z,22
2018-12-05T17:36:07.605Z,22
2018-12-05T17:38:04.857Z,21.9
2018-12-05T17:40:08.046Z,22.1
2018-12-05T17:42:07.523Z,22.2
2018-12-05T17:44:05.491Z,22.1
2018-12-05T17:46:05.194Z,22.2
2018-12-05T17:48:04.928Z,22.3
2018-12-05T17:50:04.672Z,22.2
2018-12-05T17:52:07.524Z,22.2
2018-12-05T17:54:05.045Z,22.2
2018-12-05T17:56:04.731Z,22.3
2018-12-05T17:58:13.030Z,22.3
2018-12-05T18:00:04.738Z,22.3
2018-12-05T18:02:05.295Z,22.3
2018-12-05T18:04:05.323Z,22.3
2018-12-05T18:06:05.220Z,22.4
2018-12-05T18:08:07.951Z,22.4
2018-12-05T18:10:04.667Z,22.4
2018-12-05T18:12:05.377Z,22.4
2018-12-05T18:14:10.115Z,22.3
2018-12-05T18:16:05.038Z,22.3
2018-12-05T18:18:04.988Z,22.3
2018-12-05T18:20:07.457Z,22.3
2018-12-05T18:22:05.195Z,22.3
2018-12-05T18:24:04.927Z,22.2
2018-12-05T18:26:05.598Z,22.2
2018-12-05T18:28:05.301Z,22.2
2018-12-05T18:30:05.066Z,22.2
2018-12-05T18:32:04.989Z,22.2
2018-12-05T18:34:04.903Z,22.2
2018-12-05T18:36:10.662Z,22.2
2018-12-05T18:38:05.334Z,22.2
2018-12-05T18:40:04.984Z,22.3
2018-12-05T18:42:04.883Z,22.2
2018-12-05T18:44:10.356Z,22.3
2018-12-05T18:46:04.642Z,22.3
2018-12-05T18:48:05.457Z,22.3
2018-12-05T18:50:05.177Z,22.2
2018-12-05T18:52:07.446Z,22.3
2018-12-05T18:54:05.152Z,22.2
2018-12-05T18:56:05.552Z,22.3
2018-12-05T18:58:05.234Z,22.3
2018-12-05T19:00:04.954Z,22.3
2018-12-05T19:02:04.614Z,22.3
2018-12-05T19:04:05.305Z,22.3
2018-12-05T19:06:07.538Z,22.3
2018-12-05T19:08:04.665Z,22.2
2018-12-05T19:10:06.634Z,22.2
2018-12-05T19:12:05.363Z,22.2
2018-12-05T19:14:05.082Z,22.3
2018-12-05T19:16:05.041Z,22.3
2018-12-05T19:18:05.365Z,22.3
2018-12-05T19:20:05.165Z,22.3
2018-12-05T19:22:04.987Z,22.2
2018-12-05T19:24:04.799Z,22.3
2018-12-05T19:26:05.463Z,22.3
2018-12-05T19:28:05.145Z,22.4
2018-12-05T19:30:07.412Z,22.4
2018-12-05T19:32:10.302Z,22.4
2018-12-05T19:34:04.725Z,22.4
2018-12-05T19:36:05.528Z,22.4
2018-12-05T19:38:07.741Z,22.4
2018-12-05T19:40:05.493Z,22.4
2018-12-05T19:42:05.132Z,22.4
2018-12-05T19:44:09.901Z,22.3
2018-12-05T19:46:10.659Z,22.3
2018-12-05T19:48:05.311Z,22.3
2018-12-05T19:50:05.031Z,22.4
2018-12-05T19:52:04.771Z,22.4
2018-12-05T19:54:05.489Z,22.3
2018-12-05T19:56:05.227Z,22.3
2018-12-05T19:58:04.893Z,22.4
2018-12-05T20:00:08.060Z,22.3
2018-12-05T20:02:07.890Z,22.3
2018-12-05T20:04:08.154Z,22.3
2018-12-05T20:06:04.885Z,22.3
2018-12-05T20:08:08.516Z,22.3
2018-12-05T20:10:05.132Z,22.3
2018-12-05T20:12:05.363Z,22.3
2018-12-05T20:14:05.034Z,22.3
2018-12-05T20:16:05.274Z,22.3
2018-12-05T20:18:05.218Z,22.3
2018-12-05T20:20:05.337Z,22.3
2018-12-05T20:22:05.058Z,22.3
2018-12-05T20:24:04.760Z,22.3
2018-12-05T20:26:04.674Z,22.3
2018-12-05T20:28:05.472Z,22.3
2018-12-05T20:30:05.143Z,22.3
2018-12-05T20:32:04.844Z,22.4
2018-12-05T20:34:04.802Z,22.5
2018-12-05T20:36:05.523Z,22.5
2018-12-05T20:38:04.820Z,22.4
2018-12-05T20:40:07.627Z,22.4
2018-12-05T20:42:05.475Z,22.4
2018-12-05T20:44:05.188Z,22.4
2018-12-05T20:46:04.886Z,22.4
2018-12-05T20:48:05.501Z,22.3
2018-12-05T20:50:05.199Z,22.3
2018-12-05T20:52:05.135Z,22.4
2018-12-05T20:54:04.908Z,22.3
2018-12-05T20:56:08.116Z,22.3
2018-12-05T20:58:04.786Z,22.3
2018-12-05T21:00:04.958Z,22.3
2018-12-05T21:02:09.704Z,22.3
2018-12-05T21:04:07.926Z,22.3
2018-12-05T21:06:04.983Z,22.3
2018-12-05T21:08:12.351Z,22.3
2018-12-05T21:10:05.065Z,22.3
2018-12-05T21:12:07.488Z,22.3
2018-12-05T21:14:07.712Z,22.4
2018-12-05T21:16:09.934Z,22.5
2018-12-05T21:18:04.820Z,22.5
2018-12-05T21:20:05.510Z,22.7
2018-12-05T21:22:05.173Z,22.8
2018-12-05T21:24:04.879Z,23
2018-12-05T21:26:05.603Z,23
2018-12-05T21:28:05.265Z,23.1
2018-12-05T21:30:05.002Z,23.2
2018-12-05T21:32:04.719Z,23.3
2018-12-05T21:34:06.448Z,23.3
2018-12-05T21:36:05.168Z,23.3
2018-12-05T21:38:04.921Z,23.4
2018-12-05T21:40:05.597Z,23.4
2018-12-05T21:42:05.376Z,23.5
2018-12-05T21:44:05.008Z,23.5
2018-12-05T21:48:16.623Z,23.5
2018-12-05T21:51:49.570Z,23.6
2018-12-05T21:52:23.500Z,23.6
2018-12-05T21:54:14.284Z,23.6
2018-12-05T21:57:15.678Z,23.6
2018-12-05T21:59:11.049Z,23.7
2018-12-05T22:01:07.316Z,23.7
2018-12-05T22:02:17.811Z,23.7
2018-12-05T22:06:13.269Z,23.8
2018-12-05T22:09:25.453Z,23.8
2018-12-05T22:10:05.192Z,23.8
2018-12-05T22:12:04.980Z,23.8
2018-12-05T22:14:05.241Z,23.8
2018-12-05T22:16:07.513Z,23.8
2018-12-05T22:18:04.681Z,23.8
2018-12-05T22:20:04.941Z,23.8
2018-12-05T22:22:07.448Z,23.9
2018-12-05T22:24:07.767Z,23.9
2018-12-05T22:26:13.132Z,23.9
2018-12-05T22:28:05.112Z,23.9
2018-12-05T22:30:05.806Z,23.9
2018-12-05T22:32:05.303Z,23.9
2018-12-05T22:34:05.056Z,23.9
2018-12-05T22:36:04.823Z,23.9
2018-12-05T22:38:10.540Z,23.9
2018-12-05T22:40:05.248Z,23.9
2018-12-05T22:42:05.140Z,23.9
2018-12-05T22:44:04.853Z,24
2018-12-05T22:46:05.622Z,24
2018-12-05T22:48:05.367Z,24
2018-12-05T22:50:07.657Z,24
2018-12-05T22:52:04.879Z,24
2018-12-05T22:54:04.872Z,24
2018-12-05T22:56:05.577Z,24
2018-12-05T22:58:04.754Z,24
2018-12-05T23:00:05.392Z,24
2018-12-05T23:02:07.592Z,24
2018-12-05T23:04:05.502Z,24
2018-12-05T23:06:07.900Z,24
2018-12-05T23:08:05.634Z,24
2018-12-05T23:10:05.580Z,24
2018-12-05T23:12:05.217Z,24
2018-12-05T23:14:04.891Z,24
2018-12-05T23:16:05.549Z,24.1
2018-12-05T23:18:05.393Z,24.1
2018-12-05T23:20:05.256Z,24.1
2018-12-05T23:22:07.537Z,24
2018-12-05T23:24:12.815Z,24.1
2018-12-05T23:26:05.038Z,24.1
2018-12-05T23:28:04.737Z,24.1
2018-12-05T23:30:05.622Z,24.1
2018-12-05T23:32:05.601Z,24.1
2018-12-05T23:34:05.523Z,24.1
2018-12-05T23:36:10.218Z,24.1
2018-12-05T23:38:07.447Z,24.1
2018-12-05T23:40:05.576Z,24.1
2018-12-05T23:42:07.797Z,24.1
2018-12-05T23:44:05.479Z,24.1
2018-12-05T23:46:07.707Z,24.1
2018-12-05T23:48:05.566Z,24.1
2018-12-05T23:50:05.250Z,24.1
2018-12-05T23:52:04.972Z,24.2
2018-12-05T23:54:04.693Z,24.2
2018-12-05T23:56:10.421Z,24.2
2018-12-05T23:58:05.111Z,24.2
